sensor_id;sensor_type;location;lat;lon;timestamp;P1;durP1;ratioP1;P2;durP2;ratioP2
12122;SDS011;6125;59.628;17.852;2024-01-06T00:01:22;2.70;;;1.50;;
12122;SDS011;6125;59.628;17.852;2024-01-06T00:03:50;2.50;;;1.70;;
12122;SDS011;6125;59.628;17.852;2024-01-06T00:06:18;2.20;;;1.73;;
12122;SDS011;6125;59.628;17.852;2024-01-06T00:08:45;3.67;;;2.20;;
12122;SDS011;6125;59.628;17.852;2024-01-06T00:11:18;2.33;;;1.90;;
12122;SDS011;6125;59.628;17.852;2024-01-06T00:13:51;3.83;;;2.20;;
12122;SDS011;6125;59.628;17.852;2024-01-06T00:16:19;3.67;;;1.90;;
12122;SDS011;6125;59.628;17.852;2024-01-06T00:18:47;2.50;;;1.63;;
12122;SDS011;6125;59.628;17.852;2024-01-06T00:21:14;2.63;;;1.40;;
12122;SDS011;6125;59.628;17.852;2024-01-06T00:23:44;2.23;;;1.70;;
12122;SDS011;6125;59.628;17.852;2024-01-06T00:26:15;2.03;;;1.43;;
12122;SDS011;6125;59.628;17.852;2024-01-06T00:28:42;2.10;;;1.40;;
12122;SDS011;6125;59.628;17.852;2024-01-06T00:31:09;1.97;;;1.40;;
12122;SDS011;6125;59.628;17.852;2024-01-06T00:33:37;2.03;;;1.40;;
12122;SDS011;6125;59.628;17.852;2024-01-06T00:36:06;2.33;;;1.53;;
12122;SDS011;6125;59.628;17.852;2024-01-06T00:38:34;4.53;;;1.70;;
12122;SDS011;6125;59.628;17.852;2024-01-06T00:41:01;2.03;;;1.80;;
12122;SDS011;6125;59.628;17.852;2024-01-06T00:43:28;2.00;;;1.67;;
12122;SDS011;6125;59.628;17.852;2024-01-06T00:45:55;3.03;;;1.90;;
12122;SDS011;6125;59.628;17.852;2024-01-06T00:48:25;3.70;;;1.77;;
12122;SDS011;6125;59.628;17.852;2024-01-06T00:50:54;3.20;;;1.67;;
12122;SDS011;6125;59.628;17.852;2024-01-06T00:53:23;3.17;;;1.50;;
12122;SDS011;6125;59.628;17.852;2024-01-06T00:55:51;2.90;;;1.97;;
12122;SDS011;6125;59.628;17.852;2024-01-06T00:58:22;1.80;;;1.23;;
12122;SDS011;6125;59.628;17.852;2024-01-06T01:00:57;1.67;;;1.40;;
12122;SDS011;6125;59.628;17.852;2024-01-06T01:03:24;2.60;;;1.40;;
12122;SDS011;6125;59.628;17.852;2024-01-06T01:05:51;2.10;;;1.33;;
12122;SDS011;6125;59.628;17.852;2024-01-06T01:08:23;1.33;;;1.17;;
12122;SDS011;6125;59.628;17.852;2024-01-06T01:10:51;1.37;;;1.23;;
12122;SDS011;6125;59.628;17.852;2024-01-06T01:13:19;3.40;;;1.50;;
12122;SDS011;6125;59.628;17.852;2024-01-06T01:15:47;1.67;;;1.30;;
12122;SDS011;6125;59.628;17.852;2024-01-06T01:18:16;2.20;;;1.40;;
12122;SDS011;6125;59.628;17.852;2024-01-06T01:20:43;2.90;;;1.40;;
12122;SDS011;6125;59.628;17.852;2024-01-06T01:23:12;2.83;;;1.90;;
12122;SDS011;6125;59.628;17.852;2024-01-06T01:25:39;2.17;;;1.70;;
12122;SDS011;6125;59.628;17.852;2024-01-06T01:28:07;1.97;;;1.13;;
12122;SDS011;6125;59.628;17.852;2024-01-06T01:30:38;2.73;;;1.53;;
12122;SDS011;6125;59.628;17.852;2024-01-06T01:33:05;2.00;;;1.50;;
12122;SDS011;6125;59.628;17.852;2024-01-06T01:35:33;1.73;;;1.57;;
12122;SDS011;6125;59.628;17.852;2024-01-06T01:38:09;2.43;;;1.60;;
12122;SDS011;6125;59.628;17.852;2024-01-06T01:40:38;2.60;;;1.43;;
12122;SDS011;6125;59.628;17.852;2024-01-06T01:43:05;2.23;;;1.30;;
12122;SDS011;6125;59.628;17.852;2024-01-06T01:45:41;2.53;;;1.83;;
12122;SDS011;6125;59.628;17.852;2024-01-06T01:48:09;2.97;;;1.70;;
12122;SDS011;6125;59.628;17.852;2024-01-06T01:50:36;2.90;;;1.60;;
12122;SDS011;6125;59.628;17.852;2024-01-06T01:53:03;5.27;;;1.50;;
12122;SDS011;6125;59.628;17.852;2024-01-06T01:55:32;2.17;;;1.37;;
12122;SDS011;6125;59.628;17.852;2024-01-06T01:58:02;4.77;;;1.50;;
12122;SDS011;6125;59.628;17.852;2024-01-06T02:00:29;1.70;;;1.13;;
12122;SDS011;6125;59.628;17.852;2024-01-06T02:02:58;1.33;;;1.23;;
12122;SDS011;6125;59.628;17.852;2024-01-06T02:05:29;4.83;;;1.73;;
12122;SDS011;6125;59.628;17.852;2024-01-06T02:07:56;3.70;;;1.80;;
12122;SDS011;6125;59.628;17.852;2024-01-06T02:10:26;1.67;;;1.20;;
12122;SDS011;6125;59.628;17.852;2024-01-06T02:12:57;1.23;;;1.07;;
12122;SDS011;6125;59.628;17.852;2024-01-06T02:15:36;1.70;;;1.20;;
12122;SDS011;6125;59.628;17.852;2024-01-06T02:18:03;2.83;;;1.73;;
12122;SDS011;6125;59.628;17.852;2024-01-06T02:20:38;2.37;;;1.50;;
12122;SDS011;6125;59.628;17.852;2024-01-06T02:23:18;1.53;;;1.40;;
12122;SDS011;6125;59.628;17.852;2024-01-06T02:25:48;2.77;;;1.73;;
12122;SDS011;6125;59.628;17.852;2024-01-06T02:28:16;1.63;;;1.30;;
12122;SDS011;6125;59.628;17.852;2024-01-06T02:30:51;2.13;;;1.13;;
12122;SDS011;6125;59.628;17.852;2024-01-06T02:33:20;1.47;;;1.27;;
12122;SDS011;6125;59.628;17.852;2024-01-06T02:35:49;1.70;;;1.20;;
12122;SDS011;6125;59.628;17.852;2024-01-06T02:38:18;1.87;;;1.43;;
12122;SDS011;6125;59.628;17.852;2024-01-06T02:40:48;1.40;;;1.20;;
12122;SDS011;6125;59.628;17.852;2024-01-06T02:43:15;1.70;;;1.40;;
12122;SDS011;6125;59.628;17.852;2024-01-06T02:45:42;2.13;;;1.40;;
12122;SDS011;6125;59.628;17.852;2024-01-06T02:48:11;2.03;;;1.40;;
12122;SDS011;6125;59.628;17.852;2024-01-06T02:50:47;2.03;;;1.40;;
12122;SDS011;6125;59.628;17.852;2024-01-06T02:53:14;1.90;;;1.33;;
12122;SDS011;6125;59.628;17.852;2024-01-06T02:55:43;1.27;;;1.13;;
12122;SDS011;6125;59.628;17.852;2024-01-06T02:58:10;1.43;;;1.30;;
12122;SDS011;6125;59.628;17.852;2024-01-06T03:00:40;1.47;;;1.10;;
12122;SDS011;6125;59.628;17.852;2024-01-06T03:03:07;1.30;;;1.10;;
12122;SDS011;6125;59.628;17.852;2024-01-06T03:05:37;1.63;;;1.30;;
12122;SDS011;6125;59.628;17.852;2024-01-06T03:08:05;1.70;;;1.33;;
12122;SDS011;6125;59.628;17.852;2024-01-06T03:10:32;2.77;;;1.10;;
12122;SDS011;6125;59.628;17.852;2024-01-06T03:13:01;1.70;;;1.23;;
12122;SDS011;6125;59.628;17.852;2024-01-06T03:15:28;2.17;;;1.17;;
12122;SDS011;6125;59.628;17.852;2024-01-06T03:17:58;1.83;;;1.33;;
12122;SDS011;6125;59.628;17.852;2024-01-06T03:20:30;2.57;;;1.60;;
12122;SDS011;6125;59.628;17.852;2024-01-06T03:22:57;2.70;;;1.43;;
12122;SDS011;6125;59.628;17.852;2024-01-06T03:25:24;1.70;;;1.40;;
12122;SDS011;6125;59.628;17.852;2024-01-06T03:27:53;2.87;;;1.50;;
12122;SDS011;6125;59.628;17.852;2024-01-06T03:30:24;1.43;;;0.97;;
12122;SDS011;6125;59.628;17.852;2024-01-06T03:32:54;1.60;;;1.30;;
12122;SDS011;6125;59.628;17.852;2024-01-06T03:35:21;1.00;;;0.93;;
12122;SDS011;6125;59.628;17.852;2024-01-06T03:37:49;2.77;;;1.50;;
12122;SDS011;6125;59.628;17.852;2024-01-06T03:40:16;1.57;;;1.20;;
12122;SDS011;6125;59.628;17.852;2024-01-06T03:42:43;1.37;;;1.27;;
12122;SDS011;6125;59.628;17.852;2024-01-06T03:45:10;1.20;;;1.10;;
12122;SDS011;6125;59.628;17.852;2024-01-06T03:47:40;2.20;;;1.30;;
12122;SDS011;6125;59.628;17.852;2024-01-06T03:50:09;1.30;;;1.20;;
12122;SDS011;6125;59.628;17.852;2024-01-06T03:52:36;3.20;;;1.40;;
12122;SDS011;6125;59.628;17.852;2024-01-06T03:55:09;2.07;;;0.97;;
12122;SDS011;6125;59.628;17.852;2024-01-06T03:57:40;1.77;;;1.37;;
12122;SDS011;6125;59.628;17.852;2024-01-06T04:00:11;1.13;;;1.07;;
12122;SDS011;6125;59.628;17.852;2024-01-06T04:02:45;2.93;;;1.40;;
12122;SDS011;6125;59.628;17.852;2024-01-06T04:05:12;2.07;;;1.30;;
12122;SDS011;6125;59.628;17.852;2024-01-06T04:07:41;1.33;;;1.10;;
12122;SDS011;6125;59.628;17.852;2024-01-06T04:10:09;4.03;;;1.20;;
12122;SDS011;6125;59.628;17.852;2024-01-06T04:12:37;1.33;;;1.20;;
12122;SDS011;6125;59.628;17.852;2024-01-06T04:15:07;2.63;;;1.93;;
12122;SDS011;6125;59.628;17.852;2024-01-06T04:17:34;2.20;;;1.60;;
12122;SDS011;6125;59.628;17.852;2024-01-06T04:20:02;2.30;;;1.50;;
12122;SDS011;6125;59.628;17.852;2024-01-06T04:22:30;2.70;;;1.50;;
12122;SDS011;6125;59.628;17.852;2024-01-06T04:24:57;2.50;;;1.40;;
12122;SDS011;6125;59.628;17.852;2024-01-06T04:27:25;2.37;;;1.30;;
12122;SDS011;6125;59.628;17.852;2024-01-06T04:29:52;1.30;;;1.20;;
12122;SDS011;6125;59.628;17.852;2024-01-06T04:32:19;2.23;;;1.40;;
12122;SDS011;6125;59.628;17.852;2024-01-06T04:34:48;1.87;;;1.20;;
12122;SDS011;6125;59.628;17.852;2024-01-06T04:37:17;2.97;;;1.50;;
12122;SDS011;6125;59.628;17.852;2024-01-06T04:39:44;1.83;;;1.40;;
12122;SDS011;6125;59.628;17.852;2024-01-06T04:42:11;1.87;;;1.40;;
12122;SDS011;6125;59.628;17.852;2024-01-06T04:44:38;3.03;;;1.60;;
12122;SDS011;6125;59.628;17.852;2024-01-06T04:47:06;1.83;;;1.40;;
12122;SDS011;6125;59.628;17.852;2024-01-06T04:49:33;2.20;;;1.50;;
12122;SDS011;6125;59.628;17.852;2024-01-06T04:52:03;2.77;;;1.60;;
12122;SDS011;6125;59.628;17.852;2024-01-06T04:54:32;1.37;;;1.20;;
12122;SDS011;6125;59.628;17.852;2024-01-06T04:57:01;1.57;;;1.43;;
12122;SDS011;6125;59.628;17.852;2024-01-06T04:59:30;1.97;;;1.30;;
12122;SDS011;6125;59.628;17.852;2024-01-06T05:01:58;1.93;;;1.50;;
12122;SDS011;6125;59.628;17.852;2024-01-06T05:04:26;1.37;;;1.27;;
12122;SDS011;6125;59.628;17.852;2024-01-06T05:06:59;1.33;;;1.00;;
12122;SDS011;6125;59.628;17.852;2024-01-06T05:09:26;1.90;;;1.33;;
12122;SDS011;6125;59.628;17.852;2024-01-06T05:11:58;0.87;;;0.87;;
12122;SDS011;6125;59.628;17.852;2024-01-06T05:14:27;3.10;;;1.43;;
12122;SDS011;6125;59.628;17.852;2024-01-06T05:16:54;1.60;;;1.30;;
12122;SDS011;6125;59.628;17.852;2024-01-06T05:19:24;0.87;;;0.87;;
12122;SDS011;6125;59.628;17.852;2024-01-06T05:21:51;1.50;;;1.30;;
12122;SDS011;6125;59.628;17.852;2024-01-06T05:24:22;2.23;;;1.47;;
12122;SDS011;6125;59.628;17.852;2024-01-06T05:26:49;1.70;;;1.07;;
12122;SDS011;6125;59.628;17.852;2024-01-06T05:29:24;2.43;;;1.20;;
12122;SDS011;6125;59.628;17.852;2024-01-06T05:31:53;1.50;;;1.23;;
12122;SDS011;6125;59.628;17.852;2024-01-06T05:34:24;2.57;;;1.27;;
12122;SDS011;6125;59.628;17.852;2024-01-06T05:36:51;1.60;;;1.30;;
12122;SDS011;6125;59.628;17.852;2024-01-06T05:39:19;2.83;;;1.17;;
12122;SDS011;6125;59.628;17.852;2024-01-06T05:41:46;2.47;;;1.60;;
12122;SDS011;6125;59.628;17.852;2024-01-06T05:44:14;1.40;;;1.30;;
12122;SDS011;6125;59.628;17.852;2024-01-06T05:46:42;1.27;;;1.07;;
12122;SDS011;6125;59.628;17.852;2024-01-06T05:49:09;1.50;;;1.40;;
12122;SDS011;6125;59.628;17.852;2024-01-06T05:51:43;2.10;;;1.37;;
12122;SDS011;6125;59.628;17.852;2024-01-06T05:54:12;1.40;;;1.27;;
12122;SDS011;6125;59.628;17.852;2024-01-06T05:56:39;2.13;;;1.27;;
12122;SDS011;6125;59.628;17.852;2024-01-06T05:59:06;2.50;;;1.17;;
12122;SDS011;6125;59.628;17.852;2024-01-06T06:01:34;1.70;;;1.10;;
12122;SDS011;6125;59.628;17.852;2024-01-06T06:04:10;2.23;;;1.37;;
12122;SDS011;6125;59.628;17.852;2024-01-06T06:06:38;2.13;;;1.43;;
12122;SDS011;6125;59.628;17.852;2024-01-06T06:09:12;2.50;;;1.33;;
12122;SDS011;6125;59.628;17.852;2024-01-06T06:11:41;2.03;;;1.47;;
12122;SDS011;6125;59.628;17.852;2024-01-06T06:14:08;1.80;;;1.30;;
12122;SDS011;6125;59.628;17.852;2024-01-06T06:16:38;2.10;;;1.60;;
12122;SDS011;6125;59.628;17.852;2024-01-06T06:19:05;1.37;;;1.17;;
12122;SDS011;6125;59.628;17.852;2024-01-06T06:21:35;1.60;;;1.50;;
12122;SDS011;6125;59.628;17.852;2024-01-06T06:24:03;1.40;;;1.30;;
12122;SDS011;6125;59.628;17.852;2024-01-06T06:26:34;1.60;;;1.30;;
12122;SDS011;6125;59.628;17.852;2024-01-06T06:29:11;2.87;;;1.50;;
12122;SDS011;6125;59.628;17.852;2024-01-06T06:31:38;1.97;;;1.37;;
12122;SDS011;6125;59.628;17.852;2024-01-06T06:34:08;2.00;;;1.30;;
12122;SDS011;6125;59.628;17.852;2024-01-06T06:36:37;1.93;;;1.43;;
12122;SDS011;6125;59.628;17.852;2024-01-06T06:39:04;1.63;;;1.10;;
12122;SDS011;6125;59.628;17.852;2024-01-06T06:41:32;2.40;;;1.60;;
12122;SDS011;6125;59.628;17.852;2024-01-06T06:44:00;1.10;;;1.00;;
12122;SDS011;6125;59.628;17.852;2024-01-06T06:46:29;1.33;;;1.20;;
12122;SDS011;6125;59.628;17.852;2024-01-06T06:48:56;5.47;;;1.53;;
12122;SDS011;6125;59.628;17.852;2024-01-06T06:51:25;1.40;;;1.30;;
12122;SDS011;6125;59.628;17.852;2024-01-06T06:53:54;2.27;;;1.67;;
12122;SDS011;6125;59.628;17.852;2024-01-06T06:56:21;2.47;;;1.13;;
12122;SDS011;6125;59.628;17.852;2024-01-06T06:58:48;3.10;;;1.40;;
12122;SDS011;6125;59.628;17.852;2024-01-06T07:01:20;1.23;;;1.13;;
12122;SDS011;6125;59.628;17.852;2024-01-06T07:03:48;4.17;;;1.67;;
12122;SDS011;6125;59.628;17.852;2024-01-06T07:06:15;1.53;;;1.37;;
12122;SDS011;6125;59.628;17.852;2024-01-06T07:08:44;2.20;;;1.53;;
12122;SDS011;6125;59.628;17.852;2024-01-06T07:11:16;2.27;;;1.30;;
12122;SDS011;6125;59.628;17.852;2024-01-06T07:13:44;2.67;;;1.30;;
12122;SDS011;6125;59.628;17.852;2024-01-06T07:16:16;2.37;;;1.30;;
12122;SDS011;6125;59.628;17.852;2024-01-06T07:18:43;1.80;;;1.50;;
12122;SDS011;6125;59.628;17.852;2024-01-06T07:21:12;1.17;;;1.07;;
12122;SDS011;6125;59.628;17.852;2024-01-06T07:23:40;1.20;;;1.10;;
12122;SDS011;6125;59.628;17.852;2024-01-06T07:26:07;1.87;;;1.30;;
12122;SDS011;6125;59.628;17.852;2024-01-06T07:28:37;1.40;;;1.20;;
12122;SDS011;6125;59.628;17.852;2024-01-06T07:31:04;3.47;;;2.00;;
12122;SDS011;6125;59.628;17.852;2024-01-06T07:33:32;3.57;;;1.53;;
12122;SDS011;6125;59.628;17.852;2024-01-06T07:35:59;1.10;;;1.00;;
12122;SDS011;6125;59.628;17.852;2024-01-06T07:38:29;1.53;;;1.30;;
12122;SDS011;6125;59.628;17.852;2024-01-06T07:40:56;1.73;;;1.60;;
12122;SDS011;6125;59.628;17.852;2024-01-06T07:43:25;3.93;;;1.50;;
12122;SDS011;6125;59.628;17.852;2024-01-06T07:45:56;3.33;;;1.60;;
12122;SDS011;6125;59.628;17.852;2024-01-06T07:48:23;2.80;;;1.80;;
12122;SDS011;6125;59.628;17.852;2024-01-06T07:50:52;1.83;;;1.70;;
12122;SDS011;6125;59.628;17.852;2024-01-06T07:53:19;2.17;;;1.43;;
12122;SDS011;6125;59.628;17.852;2024-01-06T07:55:49;2.10;;;1.37;;
12122;SDS011;6125;59.628;17.852;2024-01-06T07:58:19;3.03;;;1.57;;
12122;SDS011;6125;59.628;17.852;2024-01-06T08:00:53;1.77;;;1.30;;
12122;SDS011;6125;59.628;17.852;2024-01-06T08:03:21;1.70;;;1.40;;
12122;SDS011;6125;59.628;17.852;2024-01-06T08:05:52;2.00;;;1.80;;
12122;SDS011;6125;59.628;17.852;2024-01-06T08:08:19;2.53;;;1.40;;
12122;SDS011;6125;59.628;17.852;2024-01-06T08:10:46;2.27;;;1.80;;
12122;SDS011;6125;59.628;17.852;2024-01-06T08:13:14;2.57;;;1.93;;
12122;SDS011;6125;59.628;17.852;2024-01-06T08:15:41;3.53;;;1.73;;
12122;SDS011;6125;59.628;17.852;2024-01-06T08:18:09;3.10;;;2.00;;
12122;SDS011;6125;59.628;17.852;2024-01-06T08:20:37;4.93;;;2.43;;
12122;SDS011;6125;59.628;17.852;2024-01-06T08:23:05;4.47;;;2.43;;
12122;SDS011;6125;59.628;17.852;2024-01-06T08:25:33;4.23;;;1.50;;
12122;SDS011;6125;59.628;17.852;2024-01-06T08:28:00;5.40;;;2.23;;
12122;SDS011;6125;59.628;17.852;2024-01-06T08:30:30;4.00;;;2.07;;
12122;SDS011;6125;59.628;17.852;2024-01-06T08:32:57;6.40;;;2.10;;
12122;SDS011;6125;59.628;17.852;2024-01-06T08:35:27;2.90;;;1.60;;
12122;SDS011;6125;59.628;17.852;2024-01-06T08:37:56;3.27;;;1.70;;
12122;SDS011;6125;59.628;17.852;2024-01-06T08:40:23;2.83;;;1.43;;
12122;SDS011;6125;59.628;17.852;2024-01-06T08:42:50;2.20;;;1.33;;
12122;SDS011;6125;59.628;17.852;2024-01-06T08:45:21;3.43;;;1.30;;
12122;SDS011;6125;59.628;17.852;2024-01-06T08:47:48;3.50;;;1.63;;
12122;SDS011;6125;59.628;17.852;2024-01-06T08:50:19;2.30;;;1.60;;
12122;SDS011;6125;59.628;17.852;2024-01-06T08:52:46;2.47;;;1.60;;
12122;SDS011;6125;59.628;17.852;2024-01-06T08:55:21;2.50;;;1.70;;
12122;SDS011;6125;59.628;17.852;2024-01-06T08:57:52;2.00;;;1.50;;
12122;SDS011;6125;59.628;17.852;2024-01-06T09:00:19;1.27;;;1.10;;
12122;SDS011;6125;59.628;17.852;2024-01-06T09:02:47;2.03;;;1.50;;
12122;SDS011;6125;59.628;17.852;2024-01-06T09:05:16;2.73;;;1.80;;
12122;SDS011;6125;59.628;17.852;2024-01-06T09:07:43;2.37;;;1.60;;
12122;SDS011;6125;59.628;17.852;2024-01-06T09:10:15;4.07;;;1.43;;
12122;SDS011;6125;59.628;17.852;2024-01-06T09:12:44;2.70;;;1.63;;
12122;SDS011;6125;59.628;17.852;2024-01-06T09:15:10;2.80;;;2.03;;
12122;SDS011;6125;59.628;17.852;2024-01-06T09:17:40;3.87;;;1.80;;
12122;SDS011;6125;59.628;17.852;2024-01-06T09:20:08;3.67;;;1.83;;
12122;SDS011;6125;59.628;17.852;2024-01-06T09:22:37;2.77;;;1.80;;
12122;SDS011;6125;59.628;17.852;2024-01-06T09:25:06;1.67;;;1.13;;
12122;SDS011;6125;59.628;17.852;2024-01-06T09:27:35;2.67;;;1.33;;
12122;SDS011;6125;59.628;17.852;2024-01-06T09:30:08;2.10;;;1.70;;
12122;SDS011;6125;59.628;17.852;2024-01-06T09:32:36;2.73;;;1.80;;
12122;SDS011;6125;59.628;17.852;2024-01-06T09:35:06;3.33;;;1.97;;
12122;SDS011;6125;59.628;17.852;2024-01-06T09:37:36;2.47;;;1.53;;
12122;SDS011;6125;59.628;17.852;2024-01-06T09:40:08;1.73;;;1.43;;
12122;SDS011;6125;59.628;17.852;2024-01-06T09:42:43;2.60;;;1.80;;
12122;SDS011;6125;59.628;17.852;2024-01-06T09:45:13;2.57;;;1.97;;
12122;SDS011;6125;59.628;17.852;2024-01-06T09:47:40;2.17;;;1.53;;
12122;SDS011;6125;59.628;17.852;2024-01-06T09:50:09;3.83;;;1.90;;
12122;SDS011;6125;59.628;17.852;2024-01-06T09:52:39;4.80;;;2.70;;
12122;SDS011;6125;59.628;17.852;2024-01-06T09:55:09;2.83;;;1.77;;
12122;SDS011;6125;59.628;17.852;2024-01-06T09:57:38;7.07;;;1.73;;
12122;SDS011;6125;59.628;17.852;2024-01-06T10:00:07;2.57;;;1.77;;
12122;SDS011;6125;59.628;17.852;2024-01-06T10:02:38;4.80;;;1.80;;
12122;SDS011;6125;59.628;17.852;2024-01-06T10:05:06;3.90;;;2.37;;
12122;SDS011;6125;59.628;17.852;2024-01-06T10:07:35;3.07;;;2.20;;
12122;SDS011;6125;59.628;17.852;2024-01-06T10:10:02;3.40;;;2.07;;
12122;SDS011;6125;59.628;17.852;2024-01-06T10:12:30;3.60;;;1.83;;
12122;SDS011;6125;59.628;17.852;2024-01-06T10:14:58;8.30;;;4.33;;
12122;SDS011;6125;59.628;17.852;2024-01-06T10:17:26;4.33;;;2.53;;
12122;SDS011;6125;59.628;17.852;2024-01-06T10:19:53;2.87;;;2.00;;
12122;SDS011;6125;59.628;17.852;2024-01-06T10:22:23;4.33;;;2.57;;
12122;SDS011;6125;59.628;17.852;2024-01-06T10:24:56;3.10;;;1.77;;
12122;SDS011;6125;59.628;17.852;2024-01-06T10:27:23;5.90;;;2.53;;
12122;SDS011;6125;59.628;17.852;2024-01-06T10:29:50;4.03;;;2.00;;
12122;SDS011;6125;59.628;17.852;2024-01-06T10:32:20;2.73;;;1.83;;
12122;SDS011;6125;59.628;17.852;2024-01-06T10:34:53;3.53;;;2.33;;
12122;SDS011;6125;59.628;17.852;2024-01-06T10:37:21;6.87;;;3.70;;
12122;SDS011;6125;59.628;17.852;2024-01-06T10:39:52;7.03;;;4.00;;
12122;SDS011;6125;59.628;17.852;2024-01-06T10:42:43;5.97;;;2.93;;
12122;SDS011;6125;59.628;17.852;2024-01-06T10:45:12;3.20;;;2.57;;
12122;SDS011;6125;59.628;17.852;2024-01-06T10:47:40;3.73;;;2.33;;
12122;SDS011;6125;59.628;17.852;2024-01-06T10:50:10;5.10;;;2.93;;
12122;SDS011;6125;59.628;17.852;2024-01-06T10:52:39;3.23;;;2.33;;
12122;SDS011;6125;59.628;17.852;2024-01-06T10:55:07;2.97;;;1.73;;
12122;SDS011;6125;59.628;17.852;2024-01-06T10:57:39;4.00;;;1.80;;
12122;SDS011;6125;59.628;17.852;2024-01-06T11:00:11;3.50;;;2.03;;
12122;SDS011;6125;59.628;17.852;2024-01-06T11:02:39;4.43;;;2.00;;
12122;SDS011;6125;59.628;17.852;2024-01-06T11:05:13;3.00;;;1.90;;
12122;SDS011;6125;59.628;17.852;2024-01-06T11:07:42;2.10;;;1.60;;
12122;SDS011;6125;59.628;17.852;2024-01-06T11:10:14;3.67;;;2.10;;
12122;SDS011;6125;59.628;17.852;2024-01-06T11:12:43;3.90;;;1.90;;
12122;SDS011;6125;59.628;17.852;2024-01-06T11:15:42;2.70;;;2.00;;
12122;SDS011;6125;59.628;17.852;2024-01-06T11:21:16;2.63;;;1.80;;
12122;SDS011;6125;59.628;17.852;2024-01-06T11:26:49;2.50;;;1.70;;
12122;SDS011;6125;59.628;17.852;2024-01-06T11:29:24;4.20;;;2.23;;
12122;SDS011;6125;59.628;17.852;2024-01-06T11:34:49;3.57;;;1.90;;
12122;SDS011;6125;59.628;17.852;2024-01-06T11:37:35;2.77;;;1.93;;
12122;SDS011;6125;59.628;17.852;2024-01-06T11:40:04;3.47;;;1.90;;
12122;SDS011;6125;59.628;17.852;2024-01-06T11:42:42;2.77;;;1.90;;
12122;SDS011;6125;59.628;17.852;2024-01-06T11:45:11;2.67;;;1.90;;
12122;SDS011;6125;59.628;17.852;2024-01-06T11:47:40;3.10;;;2.23;;
12122;SDS011;6125;59.628;17.852;2024-01-06T11:50:13;3.70;;;2.33;;
12122;SDS011;6125;59.628;17.852;2024-01-06T11:52:44;5.67;;;3.17;;
12122;SDS011;6125;59.628;17.852;2024-01-06T11:55:13;4.97;;;2.60;;
12122;SDS011;6125;59.628;17.852;2024-01-06T11:57:41;5.33;;;2.60;;
12122;SDS011;6125;59.628;17.852;2024-01-06T12:00:09;3.70;;;2.80;;
12122;SDS011;6125;59.628;17.852;2024-01-06T12:02:40;2.30;;;1.77;;
12122;SDS011;6125;59.628;17.852;2024-01-06T12:05:12;2.23;;;1.80;;
12122;SDS011;6125;59.628;17.852;2024-01-06T12:07:40;2.63;;;1.87;;
12122;SDS011;6125;59.628;17.852;2024-01-06T12:10:11;3.63;;;2.33;;
12122;SDS011;6125;59.628;17.852;2024-01-06T12:12:39;4.23;;;2.10;;
12122;SDS011;6125;59.628;17.852;2024-01-06T12:15:07;2.57;;;1.97;;
12122;SDS011;6125;59.628;17.852;2024-01-06T12:17:39;4.13;;;2.40;;
12122;SDS011;6125;59.628;17.852;2024-01-06T12:20:08;6.00;;;3.10;;
12122;SDS011;6125;59.628;17.852;2024-01-06T12:22:38;5.77;;;3.60;;
12122;SDS011;6125;59.628;17.852;2024-01-06T12:25:15;3.03;;;2.00;;
12122;SDS011;6125;59.628;17.852;2024-01-06T12:27:43;4.17;;;2.30;;
12122;SDS011;6125;59.628;17.852;2024-01-06T12:30:14;2.80;;;2.10;;
12122;SDS011;6125;59.628;17.852;2024-01-06T12:32:44;3.30;;;2.10;;
12122;SDS011;6125;59.628;17.852;2024-01-06T12:35:14;2.60;;;1.50;;
12122;SDS011;6125;59.628;17.852;2024-01-06T12:37:42;5.50;;;1.67;;
12122;SDS011;6125;59.628;17.852;2024-01-06T12:40:10;2.60;;;1.87;;
12122;SDS011;6125;59.628;17.852;2024-01-06T12:42:43;7.10;;;3.63;;
12122;SDS011;6125;59.628;17.852;2024-01-06T12:45:11;5.73;;;3.23;;
12122;SDS011;6125;59.628;17.852;2024-01-06T12:47:42;3.07;;;2.20;;
12122;SDS011;6125;59.628;17.852;2024-01-06T12:50:13;2.93;;;2.30;;
12122;SDS011;6125;59.628;17.852;2024-01-06T12:52:40;2.80;;;2.03;;
12122;SDS011;6125;59.628;17.852;2024-01-06T12:55:08;1.97;;;1.50;;
12122;SDS011;6125;59.628;17.852;2024-01-06T12:57:35;3.63;;;1.90;;
12122;SDS011;6125;59.628;17.852;2024-01-06T13:00:05;2.77;;;2.23;;
12122;SDS011;6125;59.628;17.852;2024-01-06T13:02:36;3.87;;;2.50;;
12122;SDS011;6125;59.628;17.852;2024-01-06T13:05:07;4.43;;;2.33;;
12122;SDS011;6125;59.628;17.852;2024-01-06T13:07:35;4.80;;;2.97;;
12122;SDS011;6125;59.628;17.852;2024-01-06T13:10:03;3.97;;;2.43;;
12122;SDS011;6125;59.628;17.852;2024-01-06T13:12:31;3.40;;;2.60;;
12122;SDS011;6125;59.628;17.852;2024-01-06T13:14:58;4.97;;;2.50;;
12122;SDS011;6125;59.628;17.852;2024-01-06T13:20:07;6.60;;;2.47;;
12122;SDS011;6125;59.628;17.852;2024-01-06T13:22:35;4.60;;;2.37;;
12122;SDS011;6125;59.628;17.852;2024-01-06T13:25:08;3.53;;;2.50;;
12122;SDS011;6125;59.628;17.852;2024-01-06T13:27:36;8.47;;;3.37;;
12122;SDS011;6125;59.628;17.852;2024-01-06T13:30:07;4.90;;;3.00;;
12122;SDS011;6125;59.628;17.852;2024-01-06T13:32:35;5.27;;;2.90;;
12122;SDS011;6125;59.628;17.852;2024-01-06T13:35:05;3.87;;;2.40;;
12122;SDS011;6125;59.628;17.852;2024-01-06T13:37:37;3.20;;;1.97;;
12122;SDS011;6125;59.628;17.852;2024-01-06T13:40:08;4.70;;;2.33;;
12122;SDS011;6125;59.628;17.852;2024-01-06T13:42:35;3.77;;;2.30;;
12122;SDS011;6125;59.628;17.852;2024-01-06T13:45:04;3.43;;;2.07;;
12122;SDS011;6125;59.628;17.852;2024-01-06T13:47:33;2.37;;;2.17;;
12122;SDS011;6125;59.628;17.852;2024-01-06T13:50:02;4.23;;;2.40;;
12122;SDS011;6125;59.628;17.852;2024-01-06T13:52:31;4.60;;;2.83;;
12122;SDS011;6125;59.628;17.852;2024-01-06T13:54:59;3.93;;;2.30;;
12122;SDS011;6125;59.628;17.852;2024-01-06T13:57:27;3.70;;;2.20;;
12122;SDS011;6125;59.628;17.852;2024-01-06T13:59:54;3.27;;;2.50;;
12122;SDS011;6125;59.628;17.852;2024-01-06T14:02:22;4.03;;;2.10;;
12122;SDS011;6125;59.628;17.852;2024-01-06T14:04:50;4.60;;;2.97;;
12122;SDS011;6125;59.628;17.852;2024-01-06T14:07:17;8.10;;;3.03;;
12122;SDS011;6125;59.628;17.852;2024-01-06T14:09:48;6.43;;;3.10;;
12122;SDS011;6125;59.628;17.852;2024-01-06T14:12:15;9.63;;;3.03;;
12122;SDS011;6125;59.628;17.852;2024-01-06T14:14:42;10.23;;;3.70;;
12122;SDS011;6125;59.628;17.852;2024-01-06T14:17:10;9.93;;;3.93;;
12122;SDS011;6125;59.628;17.852;2024-01-06T14:19:38;14.40;;;5.70;;
12122;SDS011;6125;59.628;17.852;2024-01-06T14:22:05;17.03;;;7.57;;
12122;SDS011;6125;59.628;17.852;2024-01-06T14:24:36;15.17;;;6.57;;
12122;SDS011;6125;59.628;17.852;2024-01-06T14:27:05;19.07;;;6.37;;
12122;SDS011;6125;59.628;17.852;2024-01-06T14:29:32;4.93;;;3.63;;
12122;SDS011;6125;59.628;17.852;2024-01-06T14:32:00;5.30;;;3.07;;
12122;SDS011;6125;59.628;17.852;2024-01-06T14:34:27;10.50;;;4.10;;
12122;SDS011;6125;59.628;17.852;2024-01-06T14:36:54;9.43;;;3.97;;
12122;SDS011;6125;59.628;17.852;2024-01-06T14:39:28;4.97;;;2.90;;
12122;SDS011;6125;59.628;17.852;2024-01-06T14:41:55;7.70;;;3.43;;
12122;SDS011;6125;59.628;17.852;2024-01-06T14:44:25;4.03;;;2.83;;
12122;SDS011;6125;59.628;17.852;2024-01-06T14:46:55;5.63;;;3.40;;
12122;SDS011;6125;59.628;17.852;2024-01-06T14:49:22;8.40;;;3.90;;
12122;SDS011;6125;59.628;17.852;2024-01-06T14:51:49;5.67;;;3.40;;
12122;SDS011;6125;59.628;17.852;2024-01-06T14:54:17;6.83;;;3.50;;
12122;SDS011;6125;59.628;17.852;2024-01-06T14:56:44;7.53;;;3.87;;
12122;SDS011;6125;59.628;17.852;2024-01-06T14:59:15;5.60;;;3.17;;
12122;SDS011;6125;59.628;17.852;2024-01-06T15:01:45;5.13;;;2.53;;
12122;SDS011;6125;59.628;17.852;2024-01-06T15:04:15;6.77;;;3.20;;
12122;SDS011;6125;59.628;17.852;2024-01-06T15:06:43;7.40;;;3.80;;
12122;SDS011;6125;59.628;17.852;2024-01-06T15:09:11;9.27;;;4.13;;
12122;SDS011;6125;59.628;17.852;2024-01-06T15:11:38;7.70;;;3.30;;